createdAt,value
2023-03-31T00:00:25.507Z,19.34
2023-03-31T00:01:25.512Z,19.23
2023-03-31T00:02:25.560Z,18.96
2023-03-31T00:03:25.762Z,18.96
2023-03-31T00:04:25.491Z,18.75
2023-03-31T00:05:25.445Z,19.12
2023-03-31T00:06:25.419Z,18.96
2023-03-31T00:07:25.413Z,18.96
2023-03-31T00:08:25.401Z,19.01
2023-03-31T00:09:25.387Z,19.12
2023-03-31T00:10:25.384Z,18.75
2023-03-31T00:11:25.359Z,19.28
2023-03-31T00:12:25.347Z,18.96
2023-03-31T00:13:25.330Z,18.96
2023-03-31T00:14:25.313Z,18.91
2023-03-31T00:15:25.301Z,19.01
2023-03-31T00:16:25.309Z,18.80
2023-03-31T00:17:25.344Z,18.96
2023-03-31T00:18:25.251Z,18.96
2023-03-31T00:19:25.253Z,19.01
2023-03-31T00:20:25.262Z,18.96
2023-03-31T00:22:25.203Z,19.12
2023-03-31T00:23:25.210Z,18.80
2023-03-31T00:24:25.179Z,19.01
2023-03-31T00:25:25.171Z,19.01
2023-03-31T00:26:25.153Z,18.80
2023-03-31T00:27:25.137Z,18.75
2023-03-31T00:28:25.127Z,19.01
2023-03-31T00:29:25.106Z,19.01
2023-03-31T00:30:25.096Z,19.23
2023-03-31T00:31:25.106Z,19.12
2023-03-31T00:32:25.102Z,18.75
2023-03-31T00:33:25.078Z,19.17
2023-03-31T00:34:25.035Z,18.96
2023-03-31T00:35:25.021Z,19.17
2023-03-31T00:36:25.042Z,19.01
2023-03-31T00:37:24.997Z,19.01
2023-03-31T00:38:24.997Z,18.85
2023-03-31T00:39:24.968Z,18.85
2023-03-31T00:40:24.956Z,18.64
2023-03-31T00:41:24.940Z,19.01
2023-03-31T00:42:24.929Z,18.96
2023-03-31T00:43:24.922Z,18.75
2023-03-31T00:44:25.096Z,18.80
2023-03-31T00:45:25.006Z,18.75
2023-03-31T00:46:24.916Z,18.80
2023-03-31T00:47:24.861Z,18.80
2023-03-31T00:48:24.849Z,18.80
2023-03-31T00:49:24.857Z,18.75
2023-03-31T00:50:24.813Z,18.53
2023-03-31T00:51:24.805Z,18.96
2023-03-31T00:52:24.794Z,18.80
2023-03-31T00:53:24.781Z,18.96
2023-03-31T00:54:24.765Z,18.53
2023-03-31T00:55:24.749Z,18.75
2023-03-31T00:56:24.737Z,18.80
2023-03-31T00:57:24.762Z,19.28
2023-03-31T00:58:24.707Z,18.80
2023-03-31T00:59:24.706Z,18.75
2023-03-31T01:00:24.681Z,18.85
2023-03-31T01:01:24.855Z,18.85
2023-03-31T01:02:24.676Z,18.91
2023-03-31T01:03:24.650Z,18.85
2023-03-31T01:04:24.636Z,18.85
2023-03-31T01:05:24.637Z,18.80
2023-03-31T01:06:24.601Z,18.85
2023-03-31T01:07:24.600Z,18.80
2023-03-31T01:08:24.612Z,19.01
2023-03-31T01:09:24.564Z,18.85
2023-03-31T01:10:24.552Z,18.64
2023-03-31T01:11:24.538Z,18.91
2023-03-31T01:12:24.513Z,18.85
2023-03-31T01:13:24.515Z,18.96
2023-03-31T01:14:24.490Z,19.17
2023-03-31T01:15:24.489Z,18.80
2023-03-31T01:16:24.497Z,18.80
2023-03-31T01:17:24.568Z,18.85
2023-03-31T01:18:24.669Z,18.80
2023-03-31T01:19:24.431Z,18.80
2023-03-31T01:20:24.417Z,19.07
2023-03-31T01:21:24.423Z,18.96
2023-03-31T01:22:24.398Z,18.69
2023-03-31T01:23:24.377Z,19.01
2023-03-31T01:24:24.361Z,19.07
2023-03-31T01:25:24.348Z,18.91
2023-03-31T01:26:24.342Z,18.85
2023-03-31T01:27:24.316Z,18.75
2023-03-31T01:28:24.308Z,18.75
2023-03-31T01:29:24.299Z,18.69
2023-03-31T01:30:24.287Z,18.96
2023-03-31T01:31:24.308Z,18.80
2023-03-31T01:32:24.282Z,18.80
2023-03-31T01:33:24.233Z,18.75
2023-03-31T01:34:24.224Z,18.80
2023-03-31T01:35:24.282Z,18.85
2023-03-31T01:36:24.201Z,18.91
2023-03-31T01:37:24.286Z,18.85
2023-03-31T01:38:24.219Z,18.80
2023-03-31T01:39:24.159Z,18.80
2023-03-31T01:40:24.156Z,18.80
2023-03-31T01:41:24.132Z,18.75
2023-03-31T01:42:24.564Z,18.80
2023-03-31T01:43:24.100Z,19.07
2023-03-31T01:44:24.084Z,18.91
2023-03-31T01:45:24.088Z,18.75
2023-03-31T01:46:24.085Z,18.96
2023-03-31T01:47:24.095Z,18.85
2023-03-31T01:48:24.073Z,18.75
2023-03-31T01:49:24.033Z,18.75
2023-03-31T01:50:24.006Z,18.80
2023-03-31T01:51:24.004Z,18.96
2023-03-31T01:52:24.086Z,18.80
2023-03-31T01:53:24.008Z,18.80
2023-03-31T01:54:23.953Z,18.85
2023-03-31T01:55:23.941Z,18.80
2023-03-31T01:56:23.928Z,19.01
2023-03-31T01:57:24.024Z,18.75
2023-03-31T01:58:23.897Z,18.58
2023-03-31T01:59:23.886Z,18.80
2023-03-31T02:00:23.870Z,18.85
2023-03-31T02:01:23.891Z,18.80
2023-03-31T02:02:23.912Z,18.85
2023-03-31T02:03:23.965Z,18.80
2023-03-31T02:04:23.824Z,18.96
2023-03-31T02:05:23.811Z,18.58
2023-03-31T02:06:23.790Z,18.85
2023-03-31T02:07:23.773Z,18.80
2023-03-31T02:08:23.767Z,18.85
2023-03-31T02:09:23.790Z,18.91
2023-03-31T02:10:23.742Z,18.85
2023-03-31T02:11:23.724Z,18.69
2023-03-31T02:12:23.710Z,18.75
2023-03-31T02:13:23.694Z,18.75
2023-03-31T02:14:23.824Z,18.85
2023-03-31T02:15:23.668Z,18.80
2023-03-31T02:16:23.738Z,18.80
2023-03-31T02:17:23.687Z,18.85
2023-03-31T02:18:23.628Z,18.80
2023-03-31T02:19:23.729Z,18.91
2023-03-31T02:20:23.597Z,18.75
2023-03-31T02:21:23.587Z,18.80
2023-03-31T02:22:23.675Z,19.01
2023-03-31T02:23:23.562Z,18.75
2023-03-31T02:24:23.539Z,18.85
2023-03-31T02:25:23.553Z,19.23
2023-03-31T02:26:23.517Z,18.96
2023-03-31T02:27:23.503Z,18.58
2023-03-31T02:28:23.497Z,18.80
2023-03-31T02:29:23.473Z,18.75
2023-03-31T02:30:23.464Z,18.91
2023-03-31T02:31:23.478Z,18.80
2023-03-31T02:32:23.482Z,18.80
2023-03-31T02:33:23.425Z,18.80
2023-03-31T02:34:23.564Z,18.80
2023-03-31T02:35:23.430Z,18.96
2023-03-31T02:36:23.379Z,18.96
2023-03-31T02:37:23.366Z,19.01
2023-03-31T02:38:23.371Z,18.80
2023-03-31T02:39:23.346Z,18.85
2023-03-31T02:40:23.328Z,18.75
2023-03-31T02:41:23.349Z,18.80
2023-03-31T02:42:23.302Z,18.80
2023-03-31T02:43:23.343Z,18.42
2023-03-31T02:44:23.277Z,18.96
2023-03-31T02:45:23.268Z,18.96
2023-03-31T02:46:23.411Z,18.85
2023-03-31T02:47:23.361Z,18.80
2023-03-31T02:48:23.217Z,18.91
2023-03-31T02:49:23.204Z,18.80
2023-03-31T02:50:23.195Z,19.07
2023-03-31T02:51:23.176Z,18.75
2023-03-31T02:52:23.157Z,18.91
2023-03-31T02:53:23.156Z,19.07
2023-03-31T02:54:23.141Z,18.96
2023-03-31T02:55:23.137Z,18.85
2023-03-31T02:56:23.414Z,18.96
2023-03-31T02:57:23.145Z,18.91
2023-03-31T02:58:23.109Z,18.48
2023-03-31T02:59:23.067Z,18.85
2023-03-31T03:00:23.087Z,18.80
2023-03-31T03:01:23.148Z,18.75
2023-03-31T03:02:23.119Z,18.80
2023-03-31T03:03:23.039Z,18.80
2023-03-31T03:04:23.030Z,18.80
2023-03-31T03:05:22.990Z,19.07
2023-03-31T03:06:22.991Z,18.91
2023-03-31T03:07:22.965Z,18.80
2023-03-31T03:08:22.951Z,18.80
2023-03-31T03:09:22.941Z,18.48
2023-03-31T03:10:22.932Z,18.85
2023-03-31T03:11:22.926Z,18.80
2023-03-31T03:12:22.894Z,18.75
2023-03-31T03:13:22.909Z,19.01
2023-03-31T03:14:22.870Z,18.80
2023-03-31T03:15:22.877Z,18.85
2023-03-31T03:16:22.906Z,18.80
2023-03-31T03:17:22.850Z,18.96
2023-03-31T03:18:22.816Z,18.96
2023-03-31T03:19:22.803Z,18.80
2023-03-31T03:20:22.793Z,19.12
2023-03-31T03:21:22.788Z,18.91
2023-03-31T03:22:22.783Z,18.69
2023-03-31T03:23:22.766Z,18.80
2023-03-31T03:24:22.830Z,18.85
2023-03-31T03:25:22.741Z,18.80
2023-03-31T03:26:22.712Z,18.80
2023-03-31T03:27:22.901Z,18.80
2023-03-31T03:28:22.684Z,18.80
2023-03-31T03:29:22.694Z,18.85
2023-03-31T03:30:22.667Z,18.75
2023-03-31T03:31:22.755Z,18.85
2023-03-31T03:32:22.631Z,19.07
2023-03-31T03:33:22.619Z,18.80
2023-03-31T03:34:22.603Z,18.80
2023-03-31T03:35:22.597Z,18.80
2023-03-31T03:36:22.607Z,18.64
2023-03-31T03:37:22.589Z,18.80
2023-03-31T03:38:22.542Z,18.75
2023-03-31T03:39:22.531Z,18.85
2023-03-31T03:40:22.822Z,18.80
2023-03-31T03:41:22.509Z,18.80
2023-03-31T03:42:22.493Z,18.80
2023-03-31T03:43:22.481Z,19.12
2023-03-31T03:44:22.475Z,18.85
2023-03-31T03:45:22.476Z,18.75
2023-03-31T03:46:22.476Z,18.80
2023-03-31T03:47:22.476Z,18.91
2023-03-31T03:48:22.409Z,18.96
2023-03-31T03:49:22.412Z,18.96
2023-03-31T03:50:22.390Z,18.80
2023-03-31T03:51:22.366Z,18.85
2023-03-31T03:52:22.357Z,18.80
2023-03-31T03:53:22.345Z,18.91
2023-03-31T03:54:22.325Z,18.80
2023-03-31T03:55:22.316Z,18.85
2023-03-31T03:56:22.311Z,18.91
2023-03-31T03:57:22.358Z,18.85
2023-03-31T03:58:22.278Z,18.85
2023-03-31T03:59:22.258Z,18.91
2023-03-31T04:00:22.243Z,18.75
2023-03-31T04:01:22.261Z,18.80
2023-03-31T04:02:22.266Z,18.80
2023-03-31T04:03:22.222Z,18.80
2023-03-31T04:04:22.185Z,18.80
2023-03-31T04:05:22.205Z,18.80
2023-03-31T04:06:22.166Z,18.80
2023-03-31T04:07:22.147Z,18.85
2023-03-31T04:08:22.130Z,18.91
2023-03-31T04:09:22.116Z,18.80
2023-03-31T04:10:22.104Z,18.80
2023-03-31T04:11:22.091Z,18.80
2023-03-31T04:12:22.072Z,18.85
2023-03-31T04:13:22.070Z,18.96
2023-03-31T04:14:22.052Z,19.12
2023-03-31T04:15:22.041Z,18.91
2023-03-31T04:16:22.045Z,18.80
2023-03-31T04:17:22.067Z,18.75
2023-03-31T04:18:22.005Z,18.80
2023-03-31T04:19:21.976Z,18.80
2023-03-31T04:20:21.963Z,18.75
2023-03-31T04:21:21.952Z,19.12
2023-03-31T04:22:21.945Z,18.75
2023-03-31T04:23:21.922Z,18.80
2023-03-31T04:24:22.139Z,18.75
2023-03-31T04:25:21.898Z,18.85
2023-03-31T04:26:21.886Z,18.80
2023-03-31T04:27:21.869Z,18.80
2023-03-31T04:28:21.857Z,18.80
2023-03-31T04:29:21.853Z,18.96
2023-03-31T04:30:21.830Z,19.12
2023-03-31T04:31:21.842Z,18.80
2023-03-31T04:32:21.815Z,18.80
2023-03-31T04:33:21.817Z,18.80
2023-03-31T04:34:21.781Z,18.69
2023-03-31T04:35:21.815Z,18.85
2023-03-31T04:36:21.744Z,18.75
2023-03-31T04:37:21.745Z,18.80
2023-03-31T04:38:21.724Z,18.96
2023-03-31T04:39:21.698Z,18.91
2023-03-31T04:40:21.694Z,18.80
2023-03-31T04:41:21.678Z,18.80
2023-03-31T04:42:21.668Z,18.96
2023-03-31T04:43:21.666Z,18.80
2023-03-31T04:44:21.641Z,18.75
2023-03-31T04:45:21.624Z,18.75
2023-03-31T04:46:21.730Z,18.75
2023-03-31T04:47:21.637Z,18.75
2023-03-31T04:48:21.586Z,18.75
2023-03-31T04:49:21.585Z,18.80
2023-03-31T04:50:21.556Z,18.64
2023-03-31T04:51:21.544Z,18.85
2023-03-31T04:52:21.528Z,18.85
2023-03-31T04:53:21.511Z,18.69
2023-03-31T04:54:21.512Z,18.80
2023-03-31T04:55:21.484Z,18.96
2023-03-31T04:56:21.478Z,18.75
2023-03-31T04:57:21.546Z,18.80
2023-03-31T04:58:21.444Z,18.96
2023-03-31T04:59:21.439Z,18.80
2023-03-31T05:00:21.431Z,18.58
2023-03-31T05:01:21.493Z,18.80
2023-03-31T05:02:23.568Z,18.42
2023-03-31T05:03:21.675Z,18.80
2023-03-31T05:04:21.365Z,18.42
2023-03-31T05:05:21.386Z,18.75
2023-03-31T05:06:21.346Z,18.75
2023-03-31T05:07:21.330Z,18.75
2023-03-31T05:08:21.313Z,18.80
2023-03-31T05:09:21.305Z,18.96
2023-03-31T05:10:21.296Z,18.58
2023-03-31T05:11:21.281Z,18.80
2023-03-31T05:12:21.267Z,18.80
2023-03-31T05:13:21.248Z,18.80
2023-03-31T05:14:21.236Z,18.80
2023-03-31T05:15:21.244Z,18.75
2023-03-31T05:16:21.222Z,18.85
2023-03-31T05:17:21.198Z,18.75
2023-03-31T05:18:21.190Z,18.75
2023-03-31T05:19:21.177Z,18.80
2023-03-31T05:20:21.166Z,18.80
2023-03-31T05:21:21.168Z,18.80
2023-03-31T05:22:21.131Z,18.80
2023-03-31T05:23:21.143Z,18.80
2023-03-31T05:24:21.106Z,18.85
2023-03-31T05:25:21.104Z,18.80
2023-03-31T05:26:21.085Z,18.75
2023-03-31T05:27:21.064Z,18.96
2023-03-31T05:28:21.053Z,18.85
2023-03-31T05:29:21.036Z,18.80
2023-03-31T05:30:21.019Z,18.64
2023-03-31T05:31:21.059Z,18.85
2023-03-31T05:32:21.043Z,18.80
2023-03-31T05:33:20.979Z,18.75
2023-03-31T05:34:20.972Z,18.85
2023-03-31T05:35:20.958Z,18.80
2023-03-31T05:36:21.007Z,18.80
2023-03-31T05:37:20.992Z,18.80
2023-03-31T05:38:20.967Z,18.85
2023-03-31T05:39:20.897Z,18.80
2023-03-31T05:40:20.894Z,18.64
2023-03-31T05:41:21.305Z,18.80
2023-03-31T05:42:20.857Z,18.85
2023-03-31T05:43:20.841Z,18.75
2023-03-31T05:44:20.838Z,18.80
2023-03-31T05:45:20.823Z,18.91
2023-03-31T05:46:20.866Z,18.85
2023-03-31T05:47:20.792Z,18.64
2023-03-31T05:48:20.781Z,18.80
2023-03-31T05:49:20.776Z,18.85
2023-03-31T05:50:20.752Z,18.75
2023-03-31T05:51:20.742Z,18.75
2023-03-31T05:52:20.721Z,18.91
2023-03-31T05:53:20.725Z,18.75
2023-03-31T05:54:20.692Z,18.80
2023-03-31T05:55:20.682Z,18.85
2023-03-31T05:56:21.114Z,18.80
2023-03-31T05:57:20.714Z,18.80
2023-03-31T05:58:20.640Z,18.85
2023-03-31T05:59:20.627Z,18.80
2023-03-31T06:00:20.620Z,18.80
2023-03-31T06:01:20.643Z,18.80
2023-03-31T06:02:20.653Z,18.80
2023-03-31T06:03:20.584Z,18.85
2023-03-31T06:04:20.677Z,18.80
2023-03-31T06:05:20.549Z,18.96
2023-03-31T06:06:20.731Z,18.85
2023-03-31T06:07:20.511Z,18.85
2023-03-31T06:08:20.505Z,18.80
2023-03-31T06:09:20.519Z,18.85
2023-03-31T06:10:20.477Z,18.96
2023-03-31T06:11:20.478Z,18.85
2023-03-31T06:12:20.450Z,18.80
2023-03-31T06:13:20.433Z,18.64
2023-03-31T06:14:20.417Z,18.80
2023-03-31T06:15:20.411Z,18.80
2023-03-31T06:16:20.418Z,18.80
2023-03-31T06:17:20.378Z,18.80
2023-03-31T06:18:20.365Z,18.91
2023-03-31T06:19:20.346Z,18.75
2023-03-31T06:20:27.768Z,18.75
2023-03-31T06:21:21.354Z,19.01
2023-03-31T06:22:20.352Z,18.80
2023-03-31T06:23:20.302Z,18.80
2023-03-31T06:24:20.284Z,18.80
2023-03-31T06:25:20.326Z,18.96
2023-03-31T06:26:20.261Z,18.80
2023-03-31T06:27:20.249Z,18.69
2023-03-31T06:28:20.237Z,18.96
2023-03-31T06:29:20.222Z,19.12
2023-03-31T06:30:20.403Z,19.23
2023-03-31T06:31:20.196Z,19.60
2023-03-31T06:32:20.175Z,19.82
2023-03-31T06:33:20.162Z,20.73
2023-03-31T06:34:21.477Z,21.86
2023-03-31T06:35:20.141Z,23.31
2023-03-31T06:36:20.197Z,24.12
2023-03-31T06:37:20.102Z,24.65
2023-03-31T06:38:20.097Z,25.46
2023-03-31T06:39:20.075Z,25.41
2023-03-31T06:40:20.084Z,26.05
2023-03-31T06:41:20.088Z,26.48
2023-03-31T06:42:20.043Z,26.43
2023-03-31T06:43:20.024Z,26.91
2023-03-31T06:44:20.012Z,26.86
2023-03-31T06:45:20.008Z,27.39
2023-03-31T06:46:20.010Z,27.50
2023-03-31T06:47:19.985Z,27.82
2023-03-31T06:48:19.953Z,28.79
2023-03-31T06:49:19.948Z,28.74
2023-03-31T06:50:19.928Z,29.11
2023-03-31T06:51:19.909Z,29.76
2023-03-31T06:52:19.911Z,29.76
2023-03-31T06:53:19.886Z,29.49
2023-03-31T06:54:19.890Z,29.92
2023-03-31T06:55:19.863Z,30.13
2023-03-31T06:56:19.853Z,30.94
2023-03-31T06:57:19.927Z,32.39
2023-03-31T06:58:19.844Z,33.46
2023-03-31T06:59:19.809Z,34.43
2023-03-31T07:00:22.444Z,34.48
2023-03-31T07:01:19.777Z,34.48
2023-03-31T07:02:19.797Z,34.54
2023-03-31T07:03:19.805Z,34.48
2023-03-31T07:04:19.871Z,32.98
2023-03-31T07:05:19.726Z,33.30
2023-03-31T07:06:19.719Z,33.09
2023-03-31T07:07:19.704Z,33.30
2023-03-31T07:08:19.689Z,33.41
2023-03-31T07:09:19.668Z,33.46
2023-03-31T07:10:19.650Z,32.33
2023-03-31T07:11:21.041Z,32.33
2023-03-31T07:12:19.628Z,31.21
2023-03-31T07:13:19.641Z,31.15
2023-03-31T07:14:19.605Z,31.21
2023-03-31T07:15:19.594Z,31.21
2023-03-31T07:16:19.608Z,31.21
2023-03-31T07:17:19.552Z,32.44
2023-03-31T07:18:19.803Z,32.33
2023-03-31T07:19:19.534Z,32.44
2023-03-31T07:20:19.515Z,31.21
2023-03-31T07:21:19.505Z,31.26
2023-03-31T07:22:19.495Z,31.26
2023-03-31T07:23:19.483Z,30.13
2023-03-31T07:24:19.474Z,30.24
2023-03-31T07:25:19.443Z,30.13
2023-03-31T07:26:19.440Z,29.59
2023-03-31T07:27:19.431Z,29.22
2023-03-31T07:28:19.419Z,29.17
2023-03-31T07:29:19.422Z,29.22
2023-03-31T07:30:19.387Z,29.00
2023-03-31T07:31:19.437Z,28.79
2023-03-31T07:32:19.379Z,28.79
2023-03-31T07:33:19.345Z,28.79
2023-03-31T07:34:19.328Z,28.20
2023-03-31T07:35:19.325Z,28.20
2023-03-31T07:36:19.552Z,28.31
2023-03-31T07:37:19.286Z,28.20
2023-03-31T07:38:19.274Z,27.88
2023-03-31T07:39:19.257Z,27.77
2023-03-31T07:40:19.240Z,27.82
2023-03-31T07:41:19.235Z,27.88
2023-03-31T07:42:19.230Z,27.45
2023-03-31T07:43:19.207Z,27.39
2023-03-31T07:44:19.196Z,27.39
2023-03-31T07:45:19.205Z,27.39
2023-03-31T07:46:19.216Z,27.39
2023-03-31T07:47:19.149Z,26.86
2023-03-31T07:48:19.137Z,27.39
2023-03-31T07:49:19.121Z,26.86
2023-03-31T07:50:19.123Z,26.80
2023-03-31T07:51:19.109Z,26.75
2023-03-31T07:52:19.080Z,26.86
2023-03-31T07:53:19.063Z,26.80
2023-03-31T07:54:19.050Z,26.37
2023-03-31T07:55:19.101Z,26.86
2023-03-31T07:56:19.024Z,26.86
2023-03-31T07:57:19.043Z,26.43
2023-03-31T07:58:18.998Z,26.43
2023-03-31T07:59:19.000Z,26.43
2023-03-31T08:00:18.977Z,26.53
2023-03-31T08:01:18.998Z,26.43
2023-03-31T08:02:19.081Z,26.43
2023-03-31T08:03:18.974Z,26.48
2023-03-31T08:04:18.993Z,26.48
2023-03-31T08:05:18.914Z,26.05
2023-03-31T08:06:18.892Z,26.05
2023-03-31T08:07:18.875Z,26.05
2023-03-31T08:08:18.864Z,26.21
2023-03-31T08:09:18.853Z,26.05
2023-03-31T08:10:18.843Z,26.00
2023-03-31T08:11:18.822Z,26.10
2023-03-31T08:12:18.808Z,26.05
2023-03-31T08:13:18.812Z,25.83
2023-03-31T08:14:30.394Z,26.00
2023-03-31T08:15:19.800Z,25.51
2023-03-31T08:16:18.827Z,25.46
2023-03-31T08:17:18.765Z,25.46
2023-03-31T08:18:18.733Z,25.46
2023-03-31T08:19:18.710Z,25.46
2023-03-31T08:20:18.699Z,25.51
2023-03-31T08:21:18.683Z,25.51
2023-03-31T08:22:18.679Z,25.57
2023-03-31T08:23:18.685Z,25.51
2023-03-31T08:24:18.643Z,25.51
2023-03-31T08:25:18.642Z,25.51
2023-03-31T08:26:18.622Z,25.08
2023-03-31T08:27:18.613Z,24.98
2023-03-31T08:28:18.601Z,25.14
2023-03-31T08:29:18.584Z,25.08
2023-03-31T08:30:18.602Z,25.19
2023-03-31T08:31:18.628Z,25.08
2023-03-31T08:32:18.537Z,25.14
2023-03-31T08:33:18.565Z,25.41
2023-03-31T08:34:18.509Z,25.24
2023-03-31T08:35:18.500Z,24.65
2023-03-31T08:36:18.526Z,25.14
2023-03-31T08:37:18.485Z,25.08
2023-03-31T08:38:18.454Z,25.08
2023-03-31T08:39:18.445Z,24.98
2023-03-31T08:40:18.423Z,24.76
2023-03-31T08:41:18.415Z,25.08
2023-03-31T08:42:18.403Z,24.76
2023-03-31T08:43:18.403Z,24.81
2023-03-31T08:44:18.394Z,24.33
2023-03-31T08:45:18.357Z,24.71
2023-03-31T08:46:18.359Z,24.81
2023-03-31T08:47:18.335Z,24.60
2023-03-31T08:48:18.317Z,24.71
2023-03-31T08:49:18.336Z,24.71
2023-03-31T08:50:18.310Z,24.71
2023-03-31T08:51:18.281Z,24.76
2023-03-31T08:52:18.264Z,24.65
2023-03-31T08:53:18.282Z,24.65
2023-03-31T08:54:18.245Z,24.76
2023-03-31T08:55:18.234Z,24.65
2023-03-31T08:56:18.217Z,24.12
2023-03-31T08:57:18.321Z,24.49
2023-03-31T08:58:18.184Z,24.12
2023-03-31T08:59:18.535Z,24.12
2023-03-31T09:00:18.173Z,24.06
2023-03-31T09:01:18.183Z,24.12
2023-03-31T09:02:18.359Z,24.12
2023-03-31T09:03:18.249Z,24.12
2023-03-31T09:04:18.237Z,24.12
2023-03-31T09:05:18.118Z,24.12
2023-03-31T09:06:18.272Z,24.06
2023-03-31T09:07:18.069Z,24.22
2023-03-31T09:08:18.074Z,24.22
2023-03-31T09:09:18.040Z,24.12
2023-03-31T09:10:18.036Z,24.17
2023-03-31T09:11:18.013Z,23.69
2023-03-31T09:12:18.009Z,24.17
2023-03-31T09:13:17.989Z,24.12
2023-03-31T09:14:17.973Z,23.69
2023-03-31T09:15:17.986Z,23.69
2023-03-31T09:16:17.952Z,24.06
2023-03-31T09:17:17.938Z,23.79
2023-03-31T09:18:17.937Z,23.31
2023-03-31T09:19:17.902Z,23.69
2023-03-31T09:20:18.193Z,23.74
2023-03-31T09:21:17.907Z,24.01
2023-03-31T09:22:17.889Z,23.69
2023-03-31T09:23:17.850Z,23.69
2023-03-31T09:24:17.865Z,23.69
2023-03-31T09:25:17.838Z,23.69
2023-03-31T09:26:17.819Z,23.79
2023-03-31T09:27:17.804Z,23.31
2023-03-31T09:28:17.791Z,23.26
2023-03-31T09:29:17.773Z,23.26
2023-03-31T09:30:17.806Z,23.47
2023-03-31T09:31:17.803Z,23.47
2023-03-31T09:32:17.728Z,23.42
2023-03-31T09:33:17.748Z,23.31
2023-03-31T09:34:17.718Z,23.31
2023-03-31T09:35:17.697Z,23.31
2023-03-31T09:36:17.785Z,23.31
2023-03-31T09:37:17.694Z,23.31
2023-03-31T09:38:17.657Z,23.36
2023-03-31T09:39:17.642Z,23.31
2023-03-31T09:40:17.626Z,23.42
2023-03-31T09:41:17.619Z,23.42
2023-03-31T09:42:17.605Z,23.31
2023-03-31T09:43:17.594Z,23.26
2023-03-31T09:44:17.595Z,23.42
2023-03-31T09:45:17.573Z,23.31
2023-03-31T09:46:17.707Z,22.72
2023-03-31T09:47:17.712Z,23.74
2023-03-31T09:48:17.524Z,23.31
2023-03-31T09:49:17.511Z,23.31
2023-03-31T09:50:17.503Z,22.77
2023-03-31T09:51:17.483Z,23.85
2023-03-31T09:52:17.468Z,23.79
2023-03-31T09:53:17.491Z,23.31
2023-03-31T09:54:17.440Z,23.31
2023-03-31T09:55:28.392Z,23.31
2023-03-31T09:56:18.444Z,23.31
2023-03-31T09:57:17.456Z,23.26
2023-03-31T09:58:17.391Z,23.42
2023-03-31T09:59:17.378Z,23.42
2023-03-31T10:00:17.365Z,23.26
2023-03-31T10:01:17.383Z,23.53
2023-03-31T10:02:17.686Z,23.47
2023-03-31T10:03:17.325Z,23.36
2023-03-31T10:04:17.363Z,23.36
2023-03-31T10:05:17.304Z,23.36
2023-03-31T10:06:17.294Z,23.42
2023-03-31T10:07:17.281Z,23.58
2023-03-31T10:08:17.269Z,23.31
2023-03-31T10:09:17.278Z,22.77
2023-03-31T10:10:17.238Z,23.47
2023-03-31T10:11:17.227Z,22.72
2023-03-31T10:12:17.212Z,22.77
2023-03-31T10:13:17.203Z,22.72
2023-03-31T10:14:17.193Z,22.72
2023-03-31T10:15:17.174Z,23.42
2023-03-31T10:16:17.173Z,22.72
2023-03-31T10:17:17.145Z,22.72
2023-03-31T10:18:17.178Z,22.67
2023-03-31T10:19:17.122Z,22.72
2023-03-31T10:20:17.099Z,22.72
2023-03-31T10:21:17.091Z,22.72
2023-03-31T10:22:17.084Z,22.77
2023-03-31T10:23:17.070Z,22.72
2023-03-31T10:24:17.055Z,22.72
2023-03-31T10:25:17.110Z,22.72
2023-03-31T10:26:17.031Z,22.77
2023-03-31T10:27:18.322Z,22.40
2023-03-31T10:28:17.015Z,22.83
2023-03-31T10:29:16.997Z,22.77
2023-03-31T10:30:16.965Z,22.83
2023-03-31T10:31:16.994Z,22.72
2023-03-31T10:32:16.940Z,22.88
2023-03-31T10:33:22.556Z,22.29
2023-03-31T10:34:17.977Z,22.67
2023-03-31T10:35:16.906Z,22.72
2023-03-31T10:36:16.944Z,22.02
2023-03-31T10:37:16.874Z,22.50
2023-03-31T10:38:16.871Z,22.72
2023-03-31T10:39:16.847Z,22.34
2023-03-31T10:40:16.924Z,22.77
2023-03-31T10:41:16.945Z,22.40
2023-03-31T10:42:16.816Z,22.72
2023-03-31T10:43:16.804Z,22.45
2023-03-31T10:44:16.786Z,22.34
2023-03-31T10:45:26.254Z,22.40
2023-03-31T10:46:17.825Z,22.45
2023-03-31T10:47:16.748Z,22.45
2023-03-31T10:48:16.741Z,22.34
2023-03-31T10:49:16.720Z,22.83
2023-03-31T10:50:16.792Z,22.34
2023-03-31T10:51:16.721Z,22.34
2023-03-31T10:52:16.678Z,22.67
2023-03-31T10:53:16.663Z,22.40
2023-03-31T10:54:16.655Z,22.45
2023-03-31T10:55:16.663Z,22.29
2023-03-31T10:56:16.626Z,22.40
2023-03-31T10:57:16.673Z,22.34
2023-03-31T10:58:16.611Z,22.34
2023-03-31T10:59:16.588Z,22.45
2023-03-31T11:00:16.814Z,22.34
2023-03-31T11:01:16.607Z,22.29
2023-03-31T11:02:16.551Z,22.40
2023-03-31T11:03:17.144Z,22.34
2023-03-31T11:04:16.517Z,22.40
2023-03-31T11:05:16.518Z,22.34
2023-03-31T11:06:16.495Z,22.34
2023-03-31T11:07:16.486Z,22.29
2023-03-31T11:08:18.602Z,21.97
2023-03-31T11:09:16.560Z,22.40
2023-03-31T11:10:16.456Z,22.50
2023-03-31T11:11:16.427Z,22.29
2023-03-31T11:12:16.418Z,22.08
2023-03-31T11:13:16.431Z,22.34
2023-03-31T11:14:16.390Z,21.97
2023-03-31T11:15:16.390Z,22.40
2023-03-31T11:16:16.472Z,21.91
2023-03-31T11:17:16.404Z,22.29
2023-03-31T11:18:16.335Z,21.91
2023-03-31T11:19:16.320Z,21.91
2023-03-31T11:20:16.326Z,22.34
2023-03-31T11:21:16.297Z,22.02
2023-03-31T11:22:16.281Z,21.86
2023-03-31T11:23:16.261Z,22.29
2023-03-31T11:24:16.254Z,22.08
2023-03-31T11:25:16.252Z,21.86
2023-03-31T11:26:16.225Z,22.34
2023-03-31T11:27:16.211Z,21.97
2023-03-31T11:28:16.249Z,21.91
2023-03-31T11:29:16.215Z,21.91
2023-03-31T11:30:16.208Z,22.08
2023-03-31T11:31:16.177Z,21.91
2023-03-31T11:32:16.313Z,21.91
2023-03-31T11:33:16.212Z,22.29
2023-03-31T11:34:16.114Z,21.86
2023-03-31T11:35:16.104Z,22.29
2023-03-31T11:36:16.122Z,22.08
2023-03-31T11:37:16.073Z,21.97
2023-03-31T11:38:16.195Z,21.97
2023-03-31T11:39:16.076Z,21.86
2023-03-31T11:40:16.037Z,21.86
2023-03-31T11:41:16.027Z,22.24
2023-03-31T11:42:16.277Z,22.34
2023-03-31T11:43:15.992Z,22.18
2023-03-31T11:44:15.971Z,21.91
2023-03-31T11:45:15.982Z,22.34
2023-03-31T11:46:15.988Z,22.56
2023-03-31T11:47:15.943Z,21.91
2023-03-31T11:48:16.042Z,22.34
2023-03-31T11:49:15.936Z,22.45
2023-03-31T11:50:15.912Z,21.91
2023-03-31T11:51:15.885Z,22.34
2023-03-31T11:52:15.868Z,22.29
2023-03-31T11:53:15.881Z,22.40
2023-03-31T11:54:15.844Z,22.45
2023-03-31T11:55:15.834Z,22.34
2023-03-31T11:56:15.818Z,22.34
2023-03-31T11:57:15.873Z,22.50
2023-03-31T11:58:15.794Z,22.34
2023-03-31T11:59:15.777Z,22.29
2023-03-31T12:00:15.769Z,21.97
2023-03-31T12:01:15.772Z,21.91
2023-03-31T12:02:15.736Z,22.29
2023-03-31T12:03:15.795Z,22.34
2023-03-31T12:04:15.784Z,22.34
2023-03-31T12:05:15.893Z,22.56
2023-03-31T12:06:15.714Z,21.97
2023-03-31T12:07:15.675Z,22.34
2023-03-31T12:08:15.666Z,22.29
2023-03-31T12:09:15.641Z,21.91
2023-03-31T12:10:15.625Z,21.91
2023-03-31T12:11:15.605Z,21.91
2023-03-31T12:12:15.596Z,22.29
2023-03-31T12:13:15.585Z,22.29
2023-03-31T12:14:15.575Z,22.29
2023-03-31T12:15:15.565Z,21.97
2023-03-31T12:16:15.586Z,22.34
2023-03-31T12:17:15.551Z,22.72
2023-03-31T12:18:15.525Z,22.34
2023-03-31T12:19:15.505Z,21.97
2023-03-31T12:20:15.494Z,22.67
2023-03-31T12:21:15.468Z,22.18
2023-03-31T12:22:15.474Z,22.50
2023-03-31T12:23:15.459Z,22.40
2023-03-31T12:24:15.434Z,22.24
2023-03-31T12:25:15.431Z,21.97
2023-03-31T12:26:15.413Z,22.34
2023-03-31T12:27:15.393Z,21.91
2023-03-31T12:28:15.389Z,22.56
2023-03-31T12:29:15.372Z,22.50
2023-03-31T12:30:15.357Z,22.29
2023-03-31T12:31:15.354Z,21.91
2023-03-31T12:32:15.327Z,22.45
2023-03-31T12:33:15.332Z,21.91
2023-03-31T12:34:15.502Z,22.08
2023-03-31T12:35:15.287Z,22.40
2023-03-31T12:36:15.318Z,22.29
2023-03-31T12:37:15.258Z,21.86
2023-03-31T12:38:15.249Z,22.18
2023-03-31T12:39:15.546Z,22.18
2023-03-31T12:40:15.220Z,22.13
2023-03-31T12:41:15.215Z,21.97
2023-03-31T12:42:15.195Z,22.45
2023-03-31T12:43:15.195Z,21.97
2023-03-31T12:44:15.170Z,21.91
2023-03-31T12:45:15.159Z,22.34
2023-03-31T12:46:15.171Z,21.91
2023-03-31T12:47:15.141Z,21.97
2023-03-31T12:48:15.106Z,21.97
2023-03-31T12:49:15.117Z,21.91
2023-03-31T12:50:15.087Z,21.91
2023-03-31T12:51:15.071Z,21.97
2023-03-31T12:52:15.055Z,21.91
2023-03-31T12:53:15.041Z,21.97